KCFD/CFD METAR and TAF weather

Enter ICAO airport designator
Station Type Date Time Source
KCFD METAR 2019/06/26 10:15 UTC NOAA

KCFD 261015Z AUTO 00000KT 10SM CLR 22/22 A3007 RMK AO2 T02210221


Station Type Date Time Source
KCFD Decoded METAR 2019/06/26 10:15 UTC NOAA

Station name not available
Jun 26, 2019 - 06:15 AM EDT / 2019.06.26 1015 UTC
Wind: Calm:0
Visibility: 10 mile(s):0
Sky conditions: clear
Temperature: 71.8 F (22.1 C)
Dew Point: 71.8 F (22.1 C)
Relative Humidity: 100%
Pressure (altimeter): 30.07 in. Hg (1018 hPa)
ob: KCFD 261015Z AUTO 00000KT 10SM CLR 22/22 A3007 RMK AO2 T02210221
cycle: 10

Station Type Date Time Source
KCFD TAF UTC NOAA

Error!

Example: see airport list